Time;durP1;ratioP1;P1;durP2;ratioP2;P2;SDS_P1;SDS_P2;PMS_P1;PMS_P2;Temp;Humidity;BMP_temperature;BMP_pressure;BME280_temperature;BME280_humidity;BME280_pressure;Samples;Min_cycle;Max_cycle;Signal;HPM_P1;HPM_P2
2023/04/19 00:00:51;;;;;;;0.08;0.08;;;;;;;;;;6256252;23;20000;-93
2023/04/19 00:03:17;;;;;;;0.10;0.10;;;;;;;;;;6255154;23;20016;-93
2023/04/19 00:05:43;;;;;;;0.10;0.10;;;;;;;;;;6254702;23;20036;-92
2023/04/19 00:08:09;;;;;;;0.00;0.00;;;;;;;;;;6252694;23;20469;-92
2023/04/19 00:10:36;;;;;;;0.10;0.10;;;;;;;;;;6254193;23;20016;-92
2023/04/19 00:13:02;;;;;;;0.00;0.00;;;;;;;;;;6254217;23;20024;-92
2023/04/19 00:15:28;;;;;;;0.10;0.10;;;;;;;;;;6255109;23;20007;-93
2023/04/19 00:17:54;;;;;;;0.00;0.00;;;;;;;;;;6254519;23;20004;-93
2023/04/19 00:20:20;;;;;;;0.00;0.00;;;9.20;99.90;;;;;;6254249;23;20000;-93
2023/04/19 00:22:46;;;;;;;0.00;0.00;;;;;;;;;;6255198;23;20014;-93
2023/04/19 00:25:12;;;;;;;0.00;0.00;;;;;;;;;;6254405;23;20004;-93
2023/04/19 00:27:38;;;;;;;0.10;0.10;;;;;;;;;;6254109;23;20008;-91
2023/04/19 00:30:06;;;;;;;0.10;0.10;;;9.20;99.90;;;;;;6253976;23;20349;-92
2023/04/19 00:32:32;;;;;;;0.10;0.10;;;;;;;;;;6254898;23;20072;-92
2023/04/19 00:34:58;;;;;;;0.10;0.10;;;;;;;;;;6257123;23;20291;-93
2023/04/19 00:37:24;;;;;;;0.10;0.10;;;9.20;99.90;;;;;;6257881;23;20008;-93
2023/04/19 00:39:50;;;;;;;0.10;0.10;;;;;;;;;;6254485;23;20004;-90
2023/04/19 00:42:16;;;;;;;0.10;0.10;;;;;;;;;;6254641;23;20000;-91
2023/04/19 00:44:42;;;;;;;0.10;0.10;;;;;;;;;;6255595;23;20062;-92
2023/04/19 00:47:08;;;;;;;0.10;0.10;;;9.00;99.90;;;;;;6254895;23;20050;-93
2023/04/19 00:49:33;;;;;;;0.10;0.10;;;9.30;99.90;;;;;;6256400;23;20008;-91
2023/04/19 00:51:59;;;;;;;0.10;0.10;;;;;;;;;;6255500;23;20004;-93
2023/04/19 00:54:25;;;;;;;0.10;0.10;;;;;;;;;;6255013;23;20087;-93
2023/04/19 00:56:51;;;;;;;0.00;0.00;;;;;;;;;;6254935;23;20000;-93
2023/04/19 00:59:18;;;;;;;0.05;0.05;;;;;;;;;;6254793;23;20012;-93
2023/04/19 01:01:44;;;;;;;0.05;0.05;;;;;;;;;;6253340;23;20011;-93
2023/04/19 01:04:10;;;;;;;0.10;0.10;;;;;;;;;;6256424;23;19984;-92
2023/04/19 01:06:36;;;;;;;0.10;0.10;;;;;;;;;;6256350;23;20024;-93
2023/04/19 01:09:02;;;;;;;0.00;0.00;;;;;;;;;;6255621;23;20027;-93
2023/04/19 01:11:28;;;;;;;0.10;0.10;;;;;;;;;;6256012;23;20015;-92
2023/04/19 01:14:08;;;;;;;0.10;0.10;;;9.00;99.90;;;;;;6255677;23;20018;-94
2023/04/19 01:16:35;;;;;;;;;;;9.10;99.90;;;;;;6258219;23;20516;-91
2023/04/19 01:19:01;;;;;;;0.10;0.10;;;;;;;;;;6257960;22;20265;-92
2023/04/19 01:21:29;;;;;;;0.10;0.10;;;;;;;;;;6255690;23;20036;-93
2023/04/19 01:23:56;;;;;;;0.10;0.10;;;;;;;;;;6257422;22;20004;-94
2023/04/19 01:26:22;;;;;;;0.10;0.10;;;;;;;;;;6256814;23;20056;-96
2023/04/19 01:28:54;;;;;;;0.10;0.10;;;;;;;;;;6256897;23;20000;-92
2023/04/19 01:31:40;;;;;;;0.10;0.10;;;;;;;;;;6250335;23;20016;-93
2023/04/19 01:34:08;;;;;;;0.10;0.10;;;;;;;;;;6257265;23;20011;-92
2023/04/19 01:36:34;;;;;;;0.10;0.10;;;;;;;;;;6256923;23;20052;-92
2023/04/19 01:39:38;;;;;;;0.00;0.00;;;8.70;99.60;;;;;;6258332;23;20007;-91
2023/04/19 01:42:24;;;;;;;0.10;0.10;;;;;;;;;;6257788;23;20475;-91
2023/04/19 01:44:55;;;;;;;0.10;0.10;;;;;;;;;;6256878;23;20030;-98
2023/04/19 01:47:44;;;;;;;0.10;0.10;;;8.50;98.40;;;;;;6257036;23;20004;-92
2023/04/19 01:50:10;;;;;;;0.10;0.10;;;;;;;;;;6254607;23;20322;-93
2023/04/19 01:52:36;;;;;;;0.10;0.10;;;;;;;;;;6256331;23;20051;-93
2023/04/19 02:16:01;;;;;;;0.10;0.10;;;8.20;92.50;;;;;;6289818;22;20019;-92
2023/04/19 02:38:15;;;;;;;0.00;0.00;;;;;;;;;;6294169;22;20023;-88
2023/04/19 02:40:40;;;;;;;0.10;0.10;;;7.90;92.50;;;;;;6281211;22;19991;-87
2023/04/19 02:43:06;;;;;;;0.10;0.10;;;;;;;;;;6280870;22;20034;-88
2023/04/19 02:45:36;;;;;;;0.10;0.10;;;7.90;93.00;;;;;;6305235;22;20094;-89
2023/04/19 02:48:01;;;;;;;0.10;0.10;;;7.80;93.10;;;;;;6312801;22;20002;-88
2023/04/19 02:50:27;;;;;;;0.10;0.10;;;;;;;;;;6308877;22;20060;-89
2023/04/19 02:52:53;;;;;;;0.10;0.10;;;7.70;93.20;;;;;;6311011;22;20017;-90
2023/04/19 02:55:18;;;;;;;0.10;0.10;;;7.70;93.40;;;;;;6312509;22;19995;-86
2023/04/19 02:57:43;;;;;;;0.10;0.10;;;7.60;93.70;;;;;;6311585;22;19998;-88
2023/04/19 03:00:10;;;;;;;0.10;0.10;;;8.30;94.00;;;;;;6312173;22;19998;-88
2023/04/19 03:02:36;;;;;;;0.10;0.10;;;7.50;93.90;;;;;;6314071;22;20007;-88
2023/04/19 03:05:02;;;;;;;0.10;0.10;;;7.50;94.00;;;;;;6309480;22;20014;-87
2023/04/19 03:07:28;;;;;;;0.10;0.10;;;7.40;94.00;;;;;;6313354;22;20003;-87
2023/04/19 03:09:54;;;;;;;0.10;0.10;;;7.30;94.30;;;;;;6314342;22;20026;-89
2023/04/19 03:12:20;;;;;;;0.10;0.10;;;;;;;;;;6312556;22;20007;-89
2023/04/19 03:14:45;;;;;;;0.10;0.10;;;7.20;94.70;;;;;;6313265;22;19998;-88
2023/04/19 03:17:11;;;;;;;0.08;0.08;;;;;;;;;;6315300;22;20426;-88
2023/04/19 03:19:37;;;;;;;0.00;0.00;;;;;;;;;;6314919;22;20023;-87
2023/04/19 03:22:02;;;;;;;0.10;0.10;;;7.10;95.50;;;;;;6313518;22;20011;-88
2023/04/19 03:24:29;;;;;;;0.10;0.10;;;7.10;95.50;;;;;;6314952;22;20321;-89
2023/04/19 03:26:55;;;;;;;0.10;0.10;;;7.00;95.70;;;;;;6315268;22;20056;-90
2023/04/19 03:29:21;;;;;;;0.10;0.10;;;7.00;95.90;;;;;;6314797;22;20007;-87
2023/04/19 03:31:46;;;;;;;0.08;0.08;;;7.90;96.20;;;;;;6313560;22;20030;-88
2023/04/19 03:34:12;;;;;;;0.10;0.10;;;6.90;96.20;;;;;;6312385;22;20486;-88
2023/04/19 03:36:39;;;;;;;0.10;0.10;;;6.90;96.20;;;;;;6313400;22;20082;-89
2023/04/19 03:39:19;;;;;;;0.10;0.10;;;6.70;97.20;;;;;;6314326;22;20009;-88
2023/04/19 03:41:45;;;;;;;0.00;0.00;;;;;;;;;;6311201;22;19999;-88
2023/04/19 03:44:11;;;;;;;0.10;0.10;;;6.70;97.00;;;;;;6312214;22;20702;-88
2023/04/19 03:46:36;;;;;;;0.10;0.10;;;6.70;97.60;;;;;;6307370;22;20003;-88
2023/04/19 03:49:02;;;;;;;0.10;0.10;;;;;;;;;;6312868;22;20006;-89
2023/04/19 03:51:28;;;;;;;0.10;0.10;;;;;;;;;;6313774;22;20372;-88
2023/04/19 03:53:54;;;;;;;0.10;0.10;;;;;;;;;;6311970;22;20437;-87
2023/04/19 03:56:20;;;;;;;0.00;0.00;;;6.50;97.60;;;;;;6311256;22;20002;-89
2023/04/19 03:58:45;;;;;;;0.10;0.10;;;6.50;98.30;;;;;;6313351;22;20444;-88
2023/04/19 04:01:21;;;;;;;0.10;0.10;;;6.40;98.60;;;;;;6312091;22;21052;-88
2023/04/19 04:03:47;;;;;;;0.10;0.10;;;6.30;98.60;;;;;;6310871;22;20009;-90
2023/04/19 04:06:12;;;;;;;0.10;0.10;;;6.30;98.80;;;;;;6308771;22;20387;-88
2023/04/19 04:08:37;;;;;;;0.10;0.10;;;6.30;99.00;;;;;;6310416;22;20386;-88
2023/04/19 04:11:03;;;;;;;0.10;0.10;;;6.30;98.90;;;;;;6304574;22;20091;-89
2023/04/19 04:13:29;;;;;;;0.10;0.10;;;6.30;99.10;;;;;;6307858;22;20010;-88
2023/04/19 04:15:54;;;;;;;0.10;0.10;;;6.20;99.40;;;;;;6307642;22;19995;-89
2023/04/19 04:18:20;;;;;;;0.05;0.05;;;6.20;99.90;;;;;;6307560;22;20048;-89
2023/04/19 04:20:45;;;;;;;0.00;0.00;;;6.10;99.90;;;;;;6308458;22;20031;-88
2023/04/19 04:23:11;;;;;;;0.05;0.05;;;;;;;;;;6307580;22;20002;-88
2023/04/19 04:25:38;;;;;;;0.00;0.00;;;6.10;99.90;;;;;;6305640;22;20085;-88
2023/04/19 04:28:04;;;;;;;0.10;0.10;;;6.00;99.90;;;;;;6308860;22;20014;-88
2023/04/19 04:30:29;;;;;;;0.10;0.10;;;6.00;99.90;;;;;;6308661;22;20342;-88
2023/04/19 04:32:56;;;;;;;0.10;0.10;;;5.90;99.90;;;;;;6309517;22;20098;-89
2023/04/19 04:35:22;;;;;;;0.00;0.00;;;5.80;99.90;;;;;;6310787;22;20081;-89
2023/04/19 04:37:48;;;;;;;0.10;0.10;;;5.80;99.90;;;;;;6311527;22;20030;-88
2023/04/19 04:40:14;;;;;;;0.10;0.10;;;5.80;99.90;;;;;;6309922;22;20137;-87
2023/04/19 04:42:40;;;;;;;0.10;0.10;;;5.80;99.90;;;;;;6312752;22;20050;-89
2023/04/19 04:45:06;;;;;;;0.10;0.10;;;5.70;99.90;;;;;;6311390;22;20007;-88
2023/04/19 04:47:32;;;;;;;0.10;0.10;;;5.60;99.90;;;;;;6310811;22;20452;-90
2023/04/19 04:50:02;;;;;;;0.00;0.00;;;5.60;99.90;;;;;;6306260;22;20010;-88
2023/04/19 04:52:28;;;;;;;0.20;0.20;;;5.70;99.90;;;;;;6310322;22;20010;-88
2023/04/19 04:54:53;;;;;;;0.00;0.00;;;5.70;99.90;;;;;;6313935;22;20035;-88
2023/04/19 04:57:19;;;;;;;0.10;0.10;;;5.60;99.90;;;;;;6311252;22;20500;-89
2023/04/19 04:59:46;;;;;;;0.08;0.08;;;5.70;99.90;;;;;;6311817;22;19999;-88
2023/04/19 05:02:12;;;;;;;0.10;0.10;;;5.60;99.90;;;;;;6311609;22;20014;-88
2023/04/19 05:04:38;;;;;;;0.10;0.10;;;5.60;99.90;;;;;;6312917;22;20502;-88
2023/04/19 05:07:04;;;;;;;0.10;0.10;;;5.60;99.90;;;;;;6306795;22;20003;-88
2023/04/19 05:09:30;;;;;;;0.10;0.10;;;;;;;;;;6314006;22;20018;-89
2023/04/19 05:11:55;;;;;;;0.10;0.10;;;5.50;99.90;;;;;;6313364;22;20333;-91
2023/04/19 08:12:25;;;;;;;0.00;0.00;;;;;;;;;;6367193;22;20037;-96
2023/04/19 08:14:51;;;;;;;0.10;0.10;;;;;;;;;;6341522;22;19994;-96
2023/04/19 08:17:20;;;;;;;0.05;0.05;;;;;;;;;;6341441;22;19998;-96
2023/04/19 08:19:48;;;;;;;0.10;0.10;;;;;;;;;;6341264;22;20012;-96
2023/04/19 08:22:15;;;;;;;0.10;0.10;;;;;;;;;;6340408;22;19990;-96
2023/04/19 08:56:27;;;;;;;0.10;0.10;;;;;;;;;;6367662;22;20002;-96
2023/04/19 08:58:53;;;;;;;0.00;0.00;;;;;;;;;;6336583;22;20009;-96
2023/04/19 09:01:20;;;;;;;0.00;0.00;;;;;;;;;;6339297;22;19988;-96
2023/04/19 09:03:46;;;;;;;0.00;0.00;;;;;;;;;;6335617;22;19991;-96
2023/04/19 09:06:12;;;;;;;0.10;0.10;;;;;;;;;;6337198;22;19988;-96
2023/04/19 09:08:39;;;;;;;0.10;0.10;;;9.60;90.10;;;;;;6335688;22;19991;-96
2023/04/19 09:11:05;;;;;;;0.10;0.10;;;;;;;;;;6335994;22;20002;-96
2023/04/19 09:13:31;;;;;;;0.10;0.10;;;9.70;86.90;;;;;;6335719;22;20011;-96
2023/04/19 09:16:00;;;;;;;0.10;0.10;;;;;;;;;;6335592;22;19983;-95
2023/04/19 09:18:26;;;;;;;0.10;0.10;;;;;;;;;;6340491;22;20006;-96
2023/04/19 09:20:56;;;;;;;0.10;0.10;;;;;;;;;;6335749;22;19983;-96
2023/04/19 09:23:24;;;;;;;0.10;0.10;;;10.10;84.70;;;;;;6339325;22;19999;-96
2023/04/19 09:25:53;;;;;;;0.05;0.05;;;10.10;84.00;;;;;;6335318;22;19984;-95
2023/04/19 09:28:19;;;;;;;0.00;0.00;;;;;;;;;;6313580;22;19990;-95
2023/04/19 09:30:46;;;;;;;0.10;0.10;;;;;;;;;;6335710;22;19995;-96
2023/04/19 09:33:12;;;;;;;0.10;0.10;;;;;;;;;;6337049;22;20014;-96
2023/04/19 09:35:47;;;;;;;0.10;0.10;;;10.30;84.60;;;;;;6335018;22;19987;-96
2023/04/19 09:38:13;;;;;;;0.10;0.10;;;;;;;;;;6337165;22;20040;-96
2023/04/19 09:40:39;;;;;;;0.00;0.00;;;;;;;;;;6334816;22;19991;-95
2023/04/19 09:43:05;;;;;;;0.00;0.00;;;;;;;;;;6335202;22;20017;-95
2023/04/19 09:45:42;;;;;;;0.10;0.10;;;10.80;80.80;;;;;;6335003;22;19991;-96
2023/04/19 09:48:08;;;;;;;0.00;0.00;;;;;;;;;;6336033;22;20017;-95
2023/04/19 09:50:34;;;;;;;0.10;0.10;;;;;;;;;;6334993;22;19991;-96
2023/04/19 09:53:01;;;;;;;0.00;0.00;;;10.80;80.20;;;;;;6335063;22;19995;-96
2023/04/19 09:55:27;;;;;;;0.00;0.00;;;;;;;;;;6313908;22;19999;-96
2023/04/19 09:57:53;;;;;;;0.00;0.00;;;;;;;;;;6334522;22;19992;-95
2023/04/19 10:00:20;;;;;;;0.00;0.00;;;;;;;;;;6338142;22;19991;-96
2023/04/19 10:02:53;;;;;;;0.08;0.08;;;11.20;78.50;;;;;;6335209;22;19999;-96
2023/04/19 10:05:20;;;;;;;0.00;0.00;;;11.30;75.40;;;;;;6338168;22;19983;-96
2023/04/19 10:07:47;;;;;;;0.00;0.00;;;11.40;72.90;;;;;;6335053;22;19991;-96
2023/04/19 10:10:15;;;;;;;0.00;0.00;;;11.40;73.40;;;;;;6336735;22;20003;-96
2023/04/19 10:12:46;;;;;;;0.00;0.00;;;11.40;74.50;;;;;;6314775;22;20004;-96
2023/04/19 10:15:13;;;;;;;0.00;0.00;;;11.40;72.20;;;;;;6278369;22;20007;-96
2023/04/19 10:17:39;;;;;;;0.00;0.00;;;;;;;;;;6278025;22;20015;-96
2023/04/19 10:20:09;;;;;;;0.00;0.00;;;11.40;71.90;;;;;;6278264;22;19999;-96
2023/04/19 10:22:38;;;;;;;0.08;0.08;;;;;;;;;;6278050;22;20012;-96
2023/04/19 10:25:12;;;;;;;0.00;0.00;;;11.60;70.60;;;;;;6277680;22;20021;-96
2023/04/19 10:27:39;;;;;;;0.00;0.00;;;11.70;70.30;;;;;;6277890;22;20075;-96
2023/04/19 10:30:11;;;;;;;0.00;0.00;;;;;;;;;;6278136;22;20014;-96
2023/04/19 10:32:42;;;;;;;0.00;0.00;;;11.70;70.20;;;;;;6278341;22;20029;-96
2023/04/19 10:35:09;;;;;;;0.00;0.00;;;11.80;70.60;;;;;;6277422;22;20055;-96
2023/04/19 10:37:38;;;;;;;0.00;0.00;;;11.80;70.30;;;;;;6277946;22;19992;-96
2023/04/19 10:40:06;;;;;;;0.00;0.00;;;;;;;;;;6277737;22;19992;-96
2023/04/19 10:43:09;;;;;;;0.00;0.00;;;11.80;69.10;;;;;;6277171;22;20004;-96
2023/04/19 10:45:35;;;;;;;0.00;0.00;;;;;;;;;;6278065;22;20016;-96
2023/04/19 10:48:03;;;;;;;0.00;0.00;;;11.80;69.70;;;;;;6277625;22;20211;-96
2023/04/19 10:50:29;;;;;;;0.00;0.00;;;;;;;;;;6277030;22;20022;-96
2023/04/19 10:52:55;;;;;;;0.00;0.00;;;;;;;;;;6277199;22;20004;-95
2023/04/19 10:55:21;;;;;;;0.03;0.03;;;;;;;;;;6276986;22;19996;-96
2023/04/19 10:58:03;;;;;;;0.00;0.00;;;12.10;69.60;;;;;;6277001;22;19999;-96
2023/04/19 11:00:34;;;;;;;0.00;0.00;;;;;;;;;;6276973;22;20004;-96
2023/04/19 11:03:38;;;;;;;0.00;0.00;;;12.30;68.60;;;;;;6276393;22;20000;-96
2023/04/19 11:06:49;;;;;;;0.00;0.00;;;12.50;67.20;;;;;;6274053;22;19991;-96
2023/04/19 16:38:11;;;;;;;0.00;0.00;;;13.50;64.80;;;;;;6304243;22;20023;-87
2023/04/19 16:40:37;;;;;;;0.00;0.00;;;13.30;64.30;;;;;;6304814;22;20448;-87
2023/04/19 16:43:05;;;;;;;0.00;0.00;;;;;;;;;;6305123;22;20010;-89
2023/04/19 16:45:30;;;;;;;0.00;0.00;;;13.00;63.90;;;;;;6304086;22;20034;-89
2023/04/19 16:47:56;;;;;;;0.00;0.00;;;12.90;65.40;;;;;;6304494;22;20342;-88
2023/04/19 16:50:21;;;;;;;0.00;0.00;;;12.80;66.90;;;;;;6299133;22;20036;-86
2023/04/19 16:52:47;;;;;;;0.00;0.00;;;12.60;65.60;;;;;;6302189;22;20430;-89
2023/04/19 16:55:13;;;;;;;0.00;0.00;;;12.70;65.00;;;;;;6301511;22;20092;-89
2023/04/19 16:57:39;;;;;;;0.00;0.00;;;12.70;65.40;;;;;;6300045;22;20007;-90
2023/04/19 17:00:05;;;;;;;0.00;0.00;;;12.80;65.20;;;;;;6303018;22;20333;-88
2023/04/19 17:02:31;;;;;;;0.00;0.00;;;12.80;66.20;;;;;;6303950;22;20022;-89
2023/04/19 17:04:57;;;;;;;0.00;0.00;;;12.90;66.20;;;;;;6304892;22;20073;-88
2023/04/19 17:07:23;;;;;;;0.00;0.00;;;12.90;67.20;;;;;;6302425;22;20434;-88
2023/04/19 17:09:51;;;;;;;0.00;0.00;;;13.00;65.60;;;;;;6306061;22;20369;-89
2023/04/19 17:12:17;;;;;;;0.00;0.00;;;;;;;;;;6309121;22;20009;-86
2023/04/19 17:14:42;;;;;;;0.00;0.00;;;13.00;64.30;;;;;;6304132;22;20034;-89
2023/04/19 18:32:58;;;;;;;0.05;0.05;;;;;;;;;;6302697;22;20037;-93
2023/04/19 18:35:24;;;;;;;0.00;0.00;;;;;;;;;;6273724;22;20004;-94
2023/04/19 18:37:50;;;;;;;0.10;0.10;;;;;;;;;;6250890;22;19984;-96
2023/04/19 18:40:16;;;;;;;0.10;0.10;;;;;;;;;;6244258;22;20030;-96
2023/04/19 18:42:42;;;;;;;0.10;0.10;;;;;;;;;;6245363;22;19992;-96
2023/04/19 18:45:08;;;;;;;0.00;0.00;;;;;;;;;;6243629;22;20007;-95
2023/04/19 18:47:34;;;;;;;0.00;0.00;;;;;;;;;;6241789;22;20222;-96
2023/04/19 18:50:00;;;;;;;0.10;0.10;;;;;;;;;;6243970;22;20008;-95
2023/04/19 18:52:26;;;;;;;0.08;0.08;;;;;;;;;;6230955;22;20000;-96
2023/04/19 18:54:54;;;;;;;0.10;0.10;;;;;;;;;;6242169;22;19992;-96
2023/04/19 18:57:21;;;;;;;0.00;0.00;;;;;;;;;;6242589;22;20040;-94
2023/04/19 18:59:47;;;;;;;0.00;0.00;;;;;;;;;;6244117;22;20008;-95
2023/04/19 19:02:13;;;;;;;0.00;0.00;;;;;;;;;;6241026;22;20124;-95
2023/04/19 19:04:39;;;;;;;0.00;0.00;;;;;;;;;;6243582;22;20012;-95
2023/04/19 19:07:05;;;;;;;0.00;0.00;;;;;;;;;;6242920;22;20209;-95
2023/04/19 19:09:31;;;;;;;0.10;0.10;;;;;;;;;;6243826;22;19988;-96
2023/04/19 19:11:57;;;;;;;0.00;0.00;;;;;;;;;;6229484;22;19992;-95
2023/04/19 19:14:23;;;;;;;0.00;0.00;;;;;;;;;;6241926;22;20056;-96
2023/04/19 19:16:48;;;;;;;0.10;0.10;;;;;;;;;;6240889;22;20000;-93
2023/04/19 19:19:15;;;;;;;0.00;0.00;;;;;;;;;;6242928;22;20000;-96
2023/04/19 19:21:41;;;;;;;0.10;0.10;;;;;;;;;;6241593;22;20003;-95
2023/04/19 19:24:07;;;;;;;0.10;0.10;;;;;;;;;;6242988;22;20011;-96
2023/04/19 19:26:33;;;;;;;0.00;0.00;;;;;;;;;;6242754;22;20056;-94
2023/04/19 19:28:59;;;;;;;0.10;0.10;;;;;;;;;;6243907;22;20007;-96
2023/04/19 19:31:25;;;;;;;0.10;0.10;;;;;;;;;;6238778;22;20015;-96
2023/04/19 19:33:51;;;;;;;0.05;0.05;;;;;;;;;;6241295;22;20035;-96
2023/04/19 19:36:17;;;;;;;0.10;0.10;;;;;;;;;;6242980;22;19985;-96
2023/04/19 19:38:43;;;;;;;0.10;0.10;;;;;;;;;;6243600;22;20060;-96
2023/04/19 19:41:09;;;;;;;0.10;0.10;;;;;;;;;;6240734;22;19992;-96
2023/04/19 19:43:35;;;;;;;0.00;0.00;;;;;;;;;;6243776;22;20011;-96
2023/04/19 19:46:01;;;;;;;0.10;0.10;;;;;;;;;;6244093;22;19996;-96
2023/04/19 19:48:27;;;;;;;0.10;0.10;;;;;;;;;;6243797;22;20048;-96
2023/04/19 19:50:53;;;;;;;0.00;0.00;;;;;;;;;;6242327;22;19996;-95
2023/04/19 19:53:19;;;;;;;0.00;0.00;;;;;;;;;;6242858;22;20193;-94
2023/04/19 19:55:47;;;;;;;0.00;0.00;;;;;;;;;;6243197;22;19996;-95
2023/04/19 19:58:13;;;;;;;0.00;0.00;;;;;;;;;;6244437;22;19992;-96
2023/04/19 20:00:40;;;;;;;0.10;0.10;;;;;;;;;;6245576;22;20076;-96
2023/04/19 20:03:06;;;;;;;0.10;0.10;;;;;;;;;;6245619;22;20023;-95
2023/04/19 20:05:33;;;;;;;0.10;0.10;;;;;;;;;;6244329;22;19984;-95
2023/04/19 20:08:13;;;;;;;0.05;0.05;;;10.10;68.80;;;;;;6243666;22;20003;-96
2023/04/19 20:10:40;;;;;;;0.10;0.10;;;9.90;67.20;;;;;;6244630;22;20008;-96
2023/04/19 20:13:06;;;;;;;0.10;0.10;;;;;;;;;;6245371;22;20004;-96
2023/04/19 20:15:36;;;;;;;0.00;0.00;;;10.00;66.70;;;;;;6245475;22;20018;-95
2023/04/19 20:18:03;;;;;;;0.10;0.10;;;10.00;66.00;;;;;;6243453;22;19996;-96
2023/04/19 20:20:29;;;;;;;0.08;0.08;;;;;;;;;;6245736;22;19989;-94
2023/04/19 20:22:57;;;;;;;0.10;0.10;;;9.90;66.40;;;;;;6245524;22;19996;-95
2023/04/19 20:25:23;;;;;;;0.10;0.10;;;;;;;;;;6245345;22;19992;-95
2023/04/19 20:27:49;;;;;;;0.10;0.10;;;;;;;;;;6244903;22;19995;-96
2023/04/19 20:30:15;;;;;;;0.10;0.10;;;;;;;;;;6245399;22;20016;-95
2023/04/19 20:32:41;;;;;;;0.10;0.10;;;;;;;;;;6243438;22;20011;-96
2023/04/19 20:35:08;;;;;;;0.10;0.10;;;9.60;68.40;;;;;;6244656;22;19992;-95
2023/04/19 20:37:38;;;;;;;0.00;0.00;;;;;;;;;;6244367;22;19992;-96
2023/04/19 20:40:06;;;;;;;0.00;0.00;;;9.60;68.60;;;;;;6244235;22;19992;-95
2023/04/19 20:42:32;;;;;;;0.10;0.10;;;;;;;;;;6244723;22;19989;-94
2023/04/19 20:44:58;;;;;;;0.10;0.10;;;;;;;;;;6244144;22;20003;-95
2023/04/19 20:47:24;;;;;;;0.00;0.00;;;;;;;;;;6244150;22;19992;-95
2023/04/19 20:49:50;;;;;;;0.10;0.10;;;;;;;;;;6242594;22;20051;-96
2023/04/19 20:52:16;;;;;;;0.00;0.00;;;;;;;;;;6243859;22;19996;-96
2023/04/19 20:54:42;;;;;;;0.10;0.10;;;;;;;;;;6242677;22;20000;-95
2023/04/19 20:57:08;;;;;;;0.10;0.10;;;;;;;;;;6243436;22;19988;-95
2023/04/19 20:59:35;;;;;;;0.10;0.10;;;;;;;;;;6244274;22;19999;-96
2023/04/19 21:02:01;;;;;;;0.10;0.10;;;;;;;;;;6244385;22;19989;-96
2023/04/19 21:04:27;;;;;;;0.10;0.10;;;;;;;;;;6244485;22;20003;-96
2023/04/19 21:06:52;;;;;;;0.05;0.05;;;;;;;;;;6243793;22;19996;-96
2023/04/19 21:09:18;;;;;;;0.00;0.00;;;;;;;;;;6241570;22;19988;-95
2023/04/19 21:11:44;;;;;;;0.10;0.10;;;;;;;;;;6243036;22;20048;-94
2023/04/19 21:14:10;;;;;;;0.10;0.10;;;;;;;;;;6245804;22;19992;-95
2023/04/19 21:16:36;;;;;;;0.05;0.05;;;;;;;;;;6242864;22;19984;-96
2023/04/19 21:19:02;;;;;;;0.10;0.10;;;;;;;;;;6246798;22;19999;-96
2023/04/19 21:21:28;;;;;;;0.10;0.10;;;;;;;;;;6244907;22;19997;-96
2023/04/19 21:23:54;;;;;;;0.10;0.10;;;;;;;;;;6243304;22;19992;-96
2023/04/19 21:26:20;;;;;;;0.10;0.10;;;;;;;;;;6243626;22;19996;-94
2023/04/19 21:28:46;;;;;;;0.10;0.10;;;;;;;;;;6245533;22;20003;-96
2023/04/19 21:31:12;;;;;;;0.10;0.10;;;;;;;;;;6244399;22;20009;-96
2023/04/19 21:33:39;;;;;;;0.10;0.10;;;;;;;;;;6244830;22;19996;-95
2023/04/19 21:36:05;;;;;;;0.00;0.00;;;;;;;;;;6245078;22;19984;-95
2023/04/19 21:38:31;;;;;;;0.10;0.10;;;;;;;;;;6245345;22;19996;-96
2023/04/19 21:40:56;;;;;;;0.10;0.10;;;;;;;;;;6245669;22;19988;-96
2023/04/19 21:43:22;;;;;;;0.10;0.10;;;;;;;;;;6245361;22;20010;-95
2023/04/19 21:45:48;;;;;;;0.10;0.10;;;;;;;;;;6244961;22;19992;-95
2023/04/19 21:48:14;;;;;;;0.10;0.10;;;;;;;;;;6245262;22;19999;-95
2023/04/19 21:50:40;;;;;;;0.10;0.10;;;;;;;;;;6244809;22;20019;-96
2023/04/19 21:53:06;;;;;;;0.10;0.10;;;;;;;;;;6245517;22;20063;-95
2023/04/19 21:55:33;;;;;;;0.10;0.10;;;;;;;;;;6245741;22;19996;-95
2023/04/19 21:58:00;;;;;;;0.10;0.10;;;9.20;74.80;;;;;;6245551;22;20003;-95
2023/04/19 22:00:26;;;;;;;0.10;0.10;;;;;;;;;;6245701;22;20007;-94
2023/04/19 22:02:52;;;;;;;0.10;0.10;;;;;;;;;;6245477;22;20014;-96
2023/04/19 22:05:18;;;;;;;0.10;0.10;;;;;;;;;;6245531;22;19989;-96
2023/04/19 22:07:46;;;;;;;0.10;0.10;;;;;;;;;;6244183;22;20013;-96
2023/04/19 22:10:12;;;;;;;0.00;0.00;;;;;;;;;;6238584;22;20015;-96
2023/04/19 22:12:40;;;;;;;0.10;0.10;;;;;;;;;;6243796;22;20079;-96
2023/04/19 22:15:07;;;;;;;0.08;0.08;;;;;;;;;;6245410;22;19994;-93
2023/04/19 22:17:35;;;;;;;0.10;0.10;;;;;;;;;;6242923;22;20039;-95
2023/04/19 22:20:03;;;;;;;0.10;0.10;;;;;;;;;;6240473;22;20052;-96
2023/04/19 22:22:32;;;;;;;0.10;0.10;;;;;;;;;;6240809;22;20019;-95
2023/04/19 22:24:58;;;;;;;0.10;0.10;;;;;;;;;;6243169;22;19992;-96
2023/04/19 22:27:24;;;;;;;0.10;0.10;;;;;;;;;;6242398;22;20052;-95
2023/04/19 22:29:50;;;;;;;0.10;0.10;;;;;;;;;;6241259;22;20012;-96
2023/04/19 22:32:16;;;;;;;0.10;0.10;;;;;;;;;;6243382;22;20020;-96
2023/04/19 22:34:42;;;;;;;0.10;0.10;;;;;;;;;;6244096;22;19996;-95
2023/04/19 22:37:08;;;;;;;0.10;0.10;;;;;;;;;;6242720;22;20000;-94
2023/04/19 22:39:34;;;;;;;0.10;0.10;;;;;;;;;;6243195;22;19995;-96
2023/04/19 22:42:00;;;;;;;0.00;0.00;;;;;;;;;;6242308;22;19995;-96
2023/04/19 22:44:31;;;;;;;0.10;0.10;;;;;;;;;;6243670;22;19999;-95
2023/04/19 22:46:59;;;;;;;0.00;0.00;;;9.20;74.90;;;;;;6242980;22;20012;-96
2023/04/19 22:49:24;;;;;;;0.10;0.10;;;;;;;;;;6244365;22;20048;-96
2023/04/19 22:51:53;;;;;;;0.00;0.00;;;;;;;;;;6243128;22;19992;-96
2023/04/19 22:54:19;;;;;;;0.10;0.10;;;;;;;;;;6243743;22;20004;-96
2023/04/19 22:56:45;;;;;;;0.10;0.10;;;;;;;;;;6242709;22;20063;-96
2023/04/19 22:59:12;;;;;;;0.03;0.03;;;;;;;;;;6244015;22;19988;-96
2023/04/19 23:01:38;;;;;;;0.10;0.10;;;;;;;;;;6244211;22;19997;-95
2023/04/19 23:04:04;;;;;;;0.10;0.10;;;;;;;;;;6242455;22;20012;-95
2023/04/19 23:06:31;;;;;;;0.00;0.00;;;;;;;;;;6241963;22;20048;-96
2023/04/19 23:08:59;;;;;;;0.03;0.03;;;;;;;;;;6244458;22;20015;-96
2023/04/19 23:11:25;;;;;;;0.10;0.10;;;;;;;;;;6242849;22;20068;-95
2023/04/19 23:13:52;;;;;;;0.10;0.10;;;;;;;;;;6241080;22;20007;-95
2023/04/19 23:16:18;;;;;;;0.10;0.10;;;;;;;;;;6244049;22;19992;-94
2023/04/19 23:18:44;;;;;;;0.10;0.10;;;;;;;;;;6243475;22;20003;-96
2023/04/19 23:21:11;;;;;;;0.08;0.08;;;;;;;;;;6241008;22;19988;-96
2023/04/19 23:23:37;;;;;;;0.10;0.10;;;9.00;80.80;;;;;;6241959;22;20023;-96
2023/04/19 23:26:03;;;;;;;0.10;0.10;;;;;;;;;;6232854;22;20008;-95
2023/04/19 23:28:29;;;;;;;0.00;0.00;;;;;;;;;;6225970;22;19992;-96
2023/04/19 23:30:55;;;;;;;0.10;0.10;;;;;;;;;;6237226;22;20008;-93
2023/04/19 23:33:21;;;;;;;0.10;0.10;;;;;;;;;;6241778;22;20008;-95
2023/04/19 23:35:47;;;;;;;0.10;0.10;;;;;;;;;;6243249;22;19988;-95
2023/04/19 23:38:13;;;;;;;0.10;0.10;;;;;;;;;;6242728;22;19992;-95
2023/04/19 23:40:39;;;;;;;0.10;0.10;;;;;;;;;;6241379;22;20013;-94
2023/04/19 23:43:05;;;;;;;0.10;0.10;;;;;;;;;;6244204;22;19993;-96
2023/04/19 23:45:31;;;;;;;0.10;0.10;;;;;;;;;;6243918;22;19987;-96
2023/04/19 23:47:57;;;;;;;0.10;0.10;;;;;;;;;;6244128;22;19984;-95
2023/04/19 23:50:23;;;;;;;0.10;0.10;;;;;;;;;;6240791;22;20008;-93
2023/04/19 23:52:49;;;;;;;0.10;0.10;;;;;;;;;;6242953;22;20027;-95
2023/04/19 23:55:15;;;;;;;0.10;0.10;;;;;;;;;;6242773;22;19992;-94
2023/04/19 23:57:41;;;;;;;0.00;0.00;;;;;;;;;;6240649;22;20004;-95
